Tiempo atmosférico en la estación meteorológica de Sant Jaume d'Enveja, Tarragona (1 m.)



Fecha
DESCASC
Temp. máxima en grados centígrados (hora)
DESCASC
Temp. mínima en grados centígrados (hora)
DESCASC
Temp. media en grados centígrados
DESCASC
Racha de viento máxima en m/sg (hora)
DESCASC
Velocidad máxima media en intervalos de 10 minutos(hora)
DESCASC
Precipitaciones diarias en mm
DESCASC
Precipitaciones de 00:00 a 06:00 en mm
DESCASC
Precipitaciones de 06:00 a 12:00 en mm
DESCASC
Precipitaciones de 12:00 a 18:00 en mm
DESCASC
Precipitaciones de 18:00 a 24:00 en mm
DESCASC
19-02-2019 14.9 (15:10) 6.3 (07:40) 10.6 5.56 (12:40) 3.06 (13:00) 0 0 0 0 0
18-02-2019 14.5 (14:10) 7.4 (04:10) 11 5.56 (11:30) 3.06 (11:20) 0 0 0 0 0
17-02-2019 13.8 (13:00) 2.6 (00:00) 8.2 5.28 (14:20) 3.33 (14:20) 0 0 0 0 0
16-02-2019 15.9 (15:40) 3.6 (00:00) 9.7 4.44 (17:10) 3.33 (17:30) 0 0 0 0 0
15-02-2019 14.3 (14:30) 5.1 (00:00) 9.7 5 (15:30) 3.33 (15:30) 0 0 0 0 0
14-02-2019 14.3 (13:30) 5.5 (00:00) 9.9 5.83 (15:00) 3.89 (16:10) 0 0 0 0 0
13-02-2019 15.1 (13:00) 2.3 (00:00) 8.7 4.72 (14:50) 2.5 (14:40) 0 0 0 0 0
12-02-2019 15.6 (14:20) 7.4 (00:00) 11.5 8.89 (10:40) 6.11 (02:10) 0 0 0 0 0
11-02-2019 -- (--) -- (--) -- -- (--) -- (--) -- 0 -- -- 0
10-02-2019 15.4 (12:00) 3.6 (00:00) 9.5 9.44 (22:10) 7.22 (16:20) 0 0 0 0 0
09-02-2019 15.1 (13:40) 6 (00:00) 10.6 5.28 (13:40) 3.61 (14:40) 0.1 0 0.1 0 0
08-02-2019 14.7 (14:30) 4.8 (00:00) 9.8 7.22 (16:10) 5.56 (16:10) 0.1 0 0.1 0 0
07-02-2019 15.2 (14:20) 5.3 (00:00) 10.3 4.44 (15:40) 3.33 (15:50) 0 0 0 0 0
06-02-2019 16.7 (13:50) 6.1 (08:20) 11.4 5.28 (16:10) 4.17 (16:10) 0 0 0 0 0
05-02-2019 16.3 (15:00) 7 (07:40) 11.6 6.11 (16:10) 5 (16:10) 0 0 0 0 0
04-02-2019 12.7 (12:40) 5.4 (00:00) 9 13.89 (01:40) 6.11 (04:40) 0 0 0 0 0
03-02-2019 11.2 (15:00) 4.9 (00:00) 8 20.28 (05:50) 10.56 (05:50) 0 0 0 0 0
02-02-2019 12.3 (14:20) 6.3 (00:00) 9.3 23.61 (15:50) 12.78 (15:40) 0 0 0 0 0
01-02-2019 16.9 (14:10) 8.8 (00:00) 12.8 15.56 (02:30) 11.39 (03:40) 0.8 0 0.4 0.3 0.1
31-01-2019 17 (15:50) 7.2 (00:00) 12.1 5 (23:10) 3.33 (23:59) 0 0 0 0 0
30-01-2019 15.7 (14:50) 6.8 (00:00) 11.3 21.39 (00:10) 10.83 (03:30) 0 0 0 0 0
29-01-2019 -- (--) -- (--) -- -- (--) -- (--) -- 0 -- 0.1 1.8
28-01-2019 -- (--) -- (--) -- -- (--) -- (--) -- -- -- 0 0
27-01-2019 -- (--) -- (--) -- -- (--) -- (--) -- 0 -- -- --
26-01-2019 17.4 (12:50) 7.8 (00:00) 12.6 15 (01:00) 6.11 (03:20) 0 0 0 0 0
25-01-2019 17.3 (14:40) 7.2 (00:00) 12.2 16.67 (12:50) 7.5 (05:10) 0 0 0 0 0
24-01-2019 11.9 (14:30) 6.5 (00:00) 9.2 19.72 (13:40) 8.89 (08:50) 0 0 0 0 0

Gráficas

Temp. máximas Temp. mínimas Temp. medias Precipitaciones Rachas de viento máximas Velocidades máximas media en intervalos de 10 minutos

Datos horarios

Fecha y hora oficial Temperatura (ºC) Velocidad del viento (km/h) Dirección del viento Racha (km/h) Dirección de racha Precipitación (mm) Presión (hPa) Tendencia (hPa) Humedad (%)
2019-02-22 23:00:00 10.1 8 Sudoeste 9 Sudoeste 0 -- -- 94
2019-02-22 22:00:00 10.6 6 Sur 8 Sudoeste 0 -- -- 89
2019-02-22 21:00:00 11.1 0 Calma 7 Sudoeste 0 -- -- 90
2019-02-22 20:00:00 12.6 4 Sudoeste 17 Sudoeste 0 -- -- 87
2019-02-22 19:00:00 13.2 13 Sudoeste 23 Sudoeste 0 -- -- 80
2019-02-22 18:00:00 15 17 Sudoeste 25 Sudoeste 0 -- -- 70
2019-02-22 17:00:00 16.5 13 Sur 15 Sur 0 -- -- 67
2019-02-22 16:00:00 16.5 10 Sur 15 Sur 0 -- -- 67
2019-02-22 15:00:00 15.8 12 Sur 17 Sur 0 -- -- 60
2019-02-22 14:00:00 16.7 11 Sur 15 Sur 0 -- -- 60
2019-02-22 13:00:00 16.5 7 Sur 11 Sudeste 0 -- -- 60
2019-02-22 12:00:00 14.9 4 Noroeste 8 Oeste 0 -- -- 58
2019-02-22 11:00:00 12.3 3 Oeste 8 Oeste 0 -- -- 70
2019-02-22 10:00:00 8.5 5 Oeste 10 Oeste 0 -- -- 87
2019-02-22 09:00:00 6.8 3 Oeste 9 Oeste 0 -- -- 93
2019-02-22 08:00:00 5 5 Oeste 10 Oeste 0 -- -- 96
2019-02-22 07:00:00 4.7 5 Oeste 8 Oeste 0 -- -- 97
2019-02-22 06:00:00 5.1 3 Noroeste 11 Oeste 0 -- -- 97
2019-02-22 05:00:00 5.5 6 Oeste 13 Oeste 0 -- -- 97
2019-02-22 04:00:00 6.2 5 Oeste 9 Oeste 0 -- -- 97
2019-02-22 03:00:00 6.4 6 Oeste 10 Oeste 0 -- -- 96
2019-02-22 02:00:00 7.5 5 Oeste 7 Oeste 0 -- -- 96
2019-02-22 01:00:00 7.8 3 Noroeste 6 Noroeste 0 -- -- 94
2019-02-22 00:00:00 8.7 0 Calma 8 Oeste 0 -- -- 93
2019-02-21 23:00:00 9.2 4 Oeste 12 Sudoeste 0 -- -- 93
2019-02-21 22:00:00 10 7 Sudoeste 9 Sudoeste 0 -- -- 91
2019-02-21 21:00:00 10.1 9 Sudoeste 10 Sudoeste 0 -- -- 91
2019-02-21 20:00:00 11.1 8 Sudoeste 14 Sudoeste 0 -- -- 88
2019-02-21 19:00:00 11.9 12 Sudoeste 19 Sudoeste 0 -- -- 86
2019-02-21 18:00:00 13.3 14 Sur 21 Sur 0 -- -- 81
2019-02-21 17:00:00 14.1 17 Sur 22 Sur 0 -- -- 76
2019-02-21 16:00:00 14.5 15 Sur 23 Sur 0 -- -- 71
2019-02-21 15:00:00 14.8 15 Sudeste 21 Sudeste 0 -- -- 76
2019-02-21 14:00:00 14.5 12 Sudeste 18 Sudeste 0 -- -- 73
2019-02-21 13:00:00 14.5 9 Sur 13 Sur 0 -- -- 71
2019-02-21 12:00:00 13 2 Oeste 5 Noroeste 0 -- -- 73
2019-02-21 11:00:00 10.9 2 Noroeste 5 Oeste 0 -- -- 86
2019-02-21 10:00:00 8.4 3 Noroeste 6 Noroeste 0 -- -- 95
2019-02-21 09:00:00 6.1 2 Noroeste 7 Noroeste 0 -- -- 96
2019-02-21 08:00:00 4.7 3 Noroeste 8 Oeste 0 -- -- 96
2019-02-21 07:00:00 4.7 3 Noroeste 15 Noroeste 0 -- -- 96
2019-02-21 06:00:00 5.3 5 Noroeste 8 Norte 0 -- -- 96
2019-02-21 05:00:00 5.6 5 Noroeste 8 Noroeste 0 -- -- 96
2019-02-21 04:00:00 5.8 4 Noroeste 6 Noroeste 0 -- -- 96
2019-02-21 03:00:00 7.3 3 Norte 6 Norte 0 -- -- 96
2019-02-21 02:00:00 8.5 4 Norte 5 Norte 0 -- -- 96
2019-02-21 01:00:00 8.7 0 Calma 6 Norte 0 -- -- 94
2019-02-21 00:00:00 8.9 3 Norte 7 Norte 0 -- -- 94
2019-02-20 23:00:00 8.5 4 Norte 6 Noroeste 0 -- -- 92
2019-02-20 22:00:00 8.9 0 Calma 4 Sudoeste 0 -- -- 86
2019-02-20 21:00:00 9.8 3 Sur 4 Sur 0 -- -- 82
2019-02-20 20:00:00 10.8 4 Sur 6 Sur 0 -- -- 81
2019-02-20 19:00:00 11.4 5 Sur 9 Sudeste 0 -- -- 76
2019-02-20 18:00:00 13 7 Sur 14 Sudeste 0 -- -- 65
2019-02-20 17:00:00 13.8 10 Sudeste 18 Sudeste 0 -- -- 61
2019-02-20 16:00:00 14.1 13 Sudeste 20 Sudeste 0 -- -- 61
2019-02-20 15:00:00 14.4 14 Sudeste 19 Sudeste 0 -- -- 61
2019-02-20 14:00:00 14.5 13 Sudeste 18 Sudeste 0 -- -- 60
2019-02-20 13:00:00 14.1 4 Este 15 Sudeste 0 -- -- 64
2019-02-20 12:00:00 13.5 0 Calma 8 Sudeste 0 -- -- 72
2019-02-20 11:00:00 12.1 3 Noroeste 8 Noroeste 0 -- -- 83
2019-02-20 10:00:00 9 3 Noroeste 8 Noroeste 0 -- -- 95
2019-02-20 09:00:00 6.9 3 Noroeste 7 Noroeste 0 -- -- 96
2019-02-20 08:00:00 5.9 5 Oeste 9 Oeste 0 -- -- 96
2019-02-20 07:00:00 5.7 3 Noroeste 7 Noroeste 0 -- -- 96
2019-02-20 06:00:00 5.6 4 Noroeste 6 Noroeste 0 -- -- 96
2019-02-20 05:00:00 6 3 Noroeste 6 Noroeste 0 -- -- 96
2019-02-20 04:00:00 6.3 3 Noroeste 7 Noroeste 0 -- -- 96
2019-02-20 03:00:00 6.7 4 Noroeste 6 Noroeste 0 -- -- 96
2019-02-20 02:00:00 7 2 Noroeste 8 Noroeste 0 -- -- 96
2019-02-20 01:00:00 7.6 4 Noroeste 6 Noroeste 0 -- -- 96
2019-02-20 00:00:00 7.6 4 Noroeste 6 Noroeste 0 -- -- 94
2019-02-19 23:00:00 8.4 3 Noroeste 5 Noroeste 0 -- -- 94
2019-02-19 22:00:00 8.9 0 Calma -- -- 0 -- -- 91
2019-02-19 21:00:00 10.2 2 Nordeste 6 Nordeste 0 -- -- 87
2019-02-19 20:00:00 10.9 4 Nordeste 6 Nordeste 0 -- -- 85
2019-02-19 19:00:00 11.8 0 Calma 8 Nordeste 0 -- -- 80
2019-02-19 18:00:00 13.1 2 Este 10 Este 0 -- -- 76
2019-02-19 17:00:00 13.7 4 Este 13 Sudeste 0 -- -- 75
2019-02-19 16:00:00 14.1 4 Este 14 Sur 0 -- -- 73
2019-02-19 15:00:00 14.1 4 Este 14 Nordeste 0 -- -- 71
2019-02-19 14:00:00 14.1 7 Nordeste 19 Nordeste 0 -- -- 76
2019-02-19 13:00:00 13.4 11 Nordeste 20 Nordeste 0 -- -- 78
2019-02-19 12:00:00 13.5 9 Nordeste 18 Nordeste 0 -- -- 78
2019-02-19 11:00:00 13 4 Nordeste 17 Nordeste 0 -- -- 82
2019-02-19 10:00:00 11.1 6 Nordeste 13 Nordeste 0 -- -- 92
2019-02-19 09:00:00 8.3 2 Noroeste 6 Noroeste 0 -- -- 96
2019-02-19 08:00:00 6.3 0 Calma 5 Oeste 0 -- -- 96
2019-02-19 07:00:00 6.9 3 Noroeste 5 Oeste 0 -- -- 96
2019-02-19 06:00:00 7.3 2 Noroeste 5 Noroeste 0 -- -- 97
2019-02-19 05:00:00 7.7 2 Noroeste 5 Oeste 0 -- -- 97
2019-02-19 04:00:00 6.9 3 Noroeste 5 Oeste 0 -- -- 96
2019-02-19 03:00:00 6.7 2 Noroeste 5 Noroeste 0 -- -- 96
2019-02-19 02:00:00 7 2 Noroeste 5 Norte 0 -- -- 96
2019-02-19 01:00:00 7.2 2 Noroeste 7 Noroeste 0 -- -- 96
2019-02-19 00:00:00 7.8 2 Noroeste 4 Noroeste 0 -- -- 96
2019-02-18 23:00:00 8.4 3 Noroeste 6 Noroeste 0 -- -- 96
2019-02-18 22:00:00 9.3 3 Norte 5 Norte 0 -- -- 94
2019-02-18 21:00:00 9.7 0 Calma 6 Sudeste 0 -- -- 93
2019-02-18 20:00:00 10.3 0 Calma 3 Este 0 -- -- 87
2019-02-18 19:00:00 11.6 0 Calma 11 Sudeste 0 -- -- 85
2019-02-18 18:00:00 12.7 2 Este 14 Este 0 -- -- 77
2019-02-18 17:00:00 13.5 4 Este 17 Sudeste 0 -- -- 71
2019-02-18 16:00:00 14.1 4 Este 18 Sudeste 0 -- -- 71
2019-02-18 15:00:00 13.7 4 Este 13 Nordeste 0 -- -- 76
2019-02-18 14:00:00 13.8 5 Este 18 Nordeste 0 -- -- 73
2019-02-18 13:00:00 14 4 Este 15 Nordeste 0 -- -- 77
2019-02-18 12:00:00 13.1 7 Nordeste 20 Nordeste 0 -- -- 81
2019-02-18 11:00:00 11.9 8 Nordeste 18 Nordeste 0 -- -- 86
2019-02-18 10:00:00 12.2 4 Nordeste 16 Nordeste 0 -- -- 86
2019-02-18 09:00:00 10.6 4 Nordeste 11 Nordeste 0 -- -- 93
2019-02-18 08:00:00 9.7 3 Nordeste 10 Nordeste 0 -- -- 97
2019-02-18 07:00:00 9.6 0 Calma 9 Nordeste 0 -- -- 97
2019-02-18 06:00:00 9.1 4 Nordeste 7 Nordeste 0 -- -- 97
2019-02-18 05:00:00 8.9 0 Calma 7 Nordeste 0 -- -- 97
2019-02-18 04:00:00 7.5 0 Calma 4 Nordeste 0 -- -- 96
2019-02-18 03:00:00 8.4 0 Calma 7 Este 0 -- -- 95
2019-02-18 02:00:00 9.2 0 Calma 5 Sudeste 0 -- -- 94
2019-02-18 01:00:00 8.6 0 Calma 5 Sudeste 0 -- -- 94
2019-02-18 00:00:00 10.1 5 Sudeste 9 Sudeste 0 -- -- 93
2019-02-17 23:00:00 10.3 6 Sudeste 8 Sudeste 0 -- -- 92
2019-02-17 22:00:00 10.3 6 Sudeste 8 Sudeste 0 -- -- 92
2019-02-17 21:00:00 10.6 5 Sudeste 7 Sudeste 0 -- -- 91
2019-02-17 20:00:00 10.7 6 Sudeste 12 Sudeste 0 -- -- 89
2019-02-17 19:00:00 11.2 7 Sudeste 11 Sudeste 0 -- -- 87
2019-02-17 18:00:00 12.4 8 Sudeste 13 Sudeste 0 -- -- 81
2019-02-17 17:00:00 12.7 8 Sudeste 14 Este 0 -- -- 77
2019-02-17 16:00:00 13.3 9 Sudeste 17 Sudeste 0 -- -- 75
2019-02-17 15:00:00 13.3 10 Sudeste 19 Sudeste 0 -- -- 73
2019-02-17 14:00:00 13.2 11 Sudeste 17 Sudeste 0 -- -- 71
2019-02-17 13:00:00 13.8 8 Sudeste 12 Sur 0 -- -- 68
2019-02-17 12:00:00 12.5 4 Sur 8 Sudoeste 0 -- -- 71
2019-02-17 11:00:00 10.9 2 Noroeste 8 Noroeste 0 -- -- 83
2019-02-17 10:00:00 7.2 0 Calma 7 Noroeste 0 -- -- 91
2019-02-17 09:00:00 4.6 4 Noroeste 6 Noroeste 0 -- -- 90
2019-02-17 08:00:00 3.2 3 Noroeste 6 Noroeste 0 -- -- 90
2019-02-17 07:00:00 3 3 Noroeste 6 Noroeste 0 -- -- 86
2019-02-17 06:00:00 2.7 3 Noroeste 6 Noroeste 0 -- -- 88
2019-02-17 05:00:00 3 4 Noroeste 5 Noroeste 0 -- -- 88
2019-02-17 04:00:00 3.6 3 Noroeste 6 Oeste 0 -- -- 85
2019-02-17 03:00:00 3.4 3 Noroeste 6 Oeste 0 -- -- 81
2019-02-17 02:00:00 4 3 Noroeste 6 Noroeste 0 -- -- 81
2019-02-17 01:00:00 4.3 4 Noroeste 7 Noroeste 0 -- -- 86
2019-02-17 00:00:00 5.3 4 Noroeste 7 Noroeste 0 -- -- 91
2019-02-16 23:00:00 6.2 5 Noroeste 7 Noroeste 0 -- -- 94
2019-02-16 22:00:00 7.6 0 Calma -- -- 0 -- -- 93
2019-02-16 21:00:00 8 2 Norte 5 Norte 0 -- -- 91
2019-02-16 20:00:00 9.2 4 Norte 5 Norte 0 -- -- 87
2019-02-16 19:00:00 10.5 0 Calma 10 Sudeste 0 -- -- 77
2019-02-16 18:00:00 12.8 8 Sudeste 16 Sudeste 0 -- -- 66
2019-02-16 17:00:00 13.4 10 Sudeste 14 Sudeste 0 -- -- 55
2019-02-16 16:00:00 15.5 0 Calma 9 Este 0 -- -- 46
2019-02-16 15:00:00 15 2 Este 10 Nordeste 0 -- -- 50
2019-02-16 14:00:00 15.2 0 Calma 9 Sudeste 0 -- -- 59
2019-02-16 13:00:00 14 3 Norte 6 Norte 0 -- -- 65
2019-02-16 12:00:00 12.2 2 Noroeste 4 Noroeste 0 -- -- 72
2019-02-16 11:00:00 10.2 0 Calma 8 Oeste 0 -- -- 86
2019-02-16 10:00:00 7 2 Noroeste 10 Noroeste 0 -- -- 95
2019-02-16 09:00:00 4.6 5 Oeste 10 Oeste 0 -- -- 97
2019-02-16 08:00:00 3.6 2 Noroeste 5 Noroeste 0 -- -- 97
2019-02-16 07:00:00 4.1 4 Oeste 8 Oeste 0 -- -- 97
2019-02-16 06:00:00 4.3 2 Noroeste 8 Oeste 0 -- -- 97
2019-02-16 05:00:00 4.2 3 Noroeste 7 Noroeste 0 -- -- 96
2019-02-16 04:00:00 5.1 3 Noroeste 7 Noroeste 0 -- -- 96
2019-02-16 03:00:00 5.6 3 Noroeste 5 Oeste 0 -- -- 96
2019-02-16 02:00:00 6.6 3 Norte 5 Noroeste 0 -- -- 96
2019-02-16 01:00:00 6.4 3 Noroeste 6 Norte 0 -- -- 94
2019-02-16 00:00:00 6.5 3 Noroeste 7 Noroeste 0 -- -- 94
2019-02-15 23:00:00 7.4 2 Noroeste 7 Noroeste 0 -- -- 94
2019-02-15 22:00:00 8.2 0 Calma -- -- 0 -- -- 92
2019-02-15 21:00:00 8.9 0 Calma 4 Sur 0 -- -- 90
2019-02-15 20:00:00 10 4 Sudeste 9 Sudeste 0 -- -- 85
2019-02-15 19:00:00 10.5 8 Sudeste 10 Sudeste 0 -- -- 81
2019-02-15 18:00:00 11.9 8 Sudeste 13 Sudeste 0 -- -- 72
2019-02-15 17:00:00 12.7 8 Sudeste 17 Sudeste 0 -- -- 70
2019-02-15 16:00:00 13 5 Sudeste 18 Sudeste 0 -- -- 67
2019-02-15 15:00:00 13.6 10 Sudeste 15 Sudeste 0 -- -- 65
2019-02-15 14:00:00 14.1 2 Norte 9 Nordeste 0 -- -- 69
2019-02-15 13:00:00 12.4 3 Oeste 9 Sudoeste 0 -- -- 66
2019-02-15 12:00:00 11.8 2 Nordeste 8 Norte 0 -- -- 75
2019-02-15 11:00:00 10 2 Norte 8 Norte 0 -- -- 92
2019-02-15 10:00:00 8.2 2 Noroeste 7 Noroeste 0 -- -- 94
2019-02-15 09:00:00 6.4 3 Noroeste 8 Noroeste 0 -- -- 96
2019-02-15 08:00:00 5.6 3 Noroeste 7 Noroeste 0 -- -- 96
2019-02-15 07:00:00 5.8 4 Noroeste 7 Noroeste 0 -- -- 96
2019-02-15 06:00:00 6 0 Calma 7 Norte 0 -- -- 96
2019-02-15 05:00:00 6.5 3 Noroeste 5 Noroeste 0 -- -- 96
2019-02-15 04:00:00 6.9 3 Noroeste 8 Noroeste 0 -- -- 94
2019-02-15 03:00:00 6.8 4 Norte 6 Noroeste 0 -- -- 94
2019-02-15 02:00:00 7.2 4 Norte 5 Norte 0 -- -- 94
2019-02-15 01:00:00 7.4 3 Norte 5 Norte 0 -- -- 94
2019-02-15 00:00:00 7.9 0 Calma 7 Noroeste 0 -- -- 91
2019-02-14 23:00:00 8.6 5 Sur 6 Sur 0 -- -- 88
2019-02-14 22:00:00 8.1 0 Calma -- -- 0 -- -- 86
2019-02-14 21:00:00 9.2 2 Sudeste 6 Sudeste 0 -- -- 82
2019-02-14 20:00:00 10.1 5 Sudeste 8 Sudeste 0 -- -- 81
2019-02-14 19:00:00 10.7 6 Sudeste 14 Sudeste 0 -- -- 76
2019-02-14 18:00:00 12.3 13 Sudeste 18 Sudeste 0 -- -- 67
2019-02-14 17:00:00 13 13 Sudeste 19 Sudeste 0 -- -- 64
2019-02-14 16:00:00 13.6 14 Sudeste 21 Sudeste 0 -- -- 62
2019-02-14 15:00:00 13.9 13 Sudeste 21 Sudeste 0 -- -- 61
2019-02-14 14:00:00 13.8 10 Sur 18 Sur 0 -- -- 60
2019-02-14 13:00:00 13.6 10 Sudeste 20 Sudeste 0 -- -- 65
2019-02-14 12:00:00 13.6 10 Sudeste 17 Sudeste 0 -- -- 67
2019-02-14 11:00:00 11.6 7 Sudeste 10 Sudeste 0 -- -- 83
2019-02-14 10:00:00 9.4 2 Noroeste 5 Norte 0 -- -- 97
2019-02-14 09:00:00 7.3 5 Norte 6 Noroeste 0 -- -- 97
2019-02-14 08:00:00 5.9 4 Noroeste 7 Noroeste 0 -- -- 97
2019-02-14 07:00:00 6 5 Noroeste 7 Noroeste 0 -- -- 97
2019-02-14 06:00:00 5.5 5 Noroeste 6 Noroeste 0 -- -- 97
2019-02-14 05:00:00 5.7 4 Noroeste 5 Noroeste 0 -- -- 97
2019-02-14 04:00:00 7.1 3 Noroeste 5 Noroeste 0 -- -- 97
2019-02-14 03:00:00 7.5 0 Calma 4 Noroeste 0 -- -- 97
2019-02-14 02:00:00 7.9 0 Calma -- -- 0 -- -- 94
2019-02-14 01:00:00 8.3 0 Calma 6 Sudoeste 0 -- -- 93
2019-02-14 00:00:00 9.8 5 Sudoeste 7 Sur 0 -- -- 93
2019-02-13 23:00:00 10.3 5 Sur 6 Sur 0 -- -- 94
2019-02-13 22:00:00 10.4 0 Calma -- -- 0 -- -- 94
2019-02-13 21:00:00 10.6 0 Calma 5 Nordeste 0 -- -- 94
2019-02-13 20:00:00 10.4 0 Calma 6 Sudeste 0 -- -- 92
2019-02-13 19:00:00 11.6 3 Este 11 Sudeste 0 -- -- 88
2019-02-13 18:00:00 13 8 Sudeste 14 Sur 0 -- -- 78
2019-02-13 17:00:00 13.8 8 Sudeste 15 Este 0 -- -- 75
2019-02-13 16:00:00 14.3 8 Sudeste 16 Sudeste 0 -- -- 75
2019-02-13 15:00:00 14.3 6 Sudeste 17 Sudeste 0 -- -- 73
2019-02-13 14:00:00 14.6 6 Sur 14 Sudeste 0 -- -- 72
2019-02-13 13:00:00 14.8 6 Sudeste 12 Sur 0 -- -- 71
2019-02-13 12:00:00 12.9 3 Norte 11 Norte 0 -- -- 73
2019-02-13 11:00:00 10.9 5 Norte 9 Norte 0 -- -- 77
2019-02-13 10:00:00 8.4 3 Noroeste 8 Noroeste 0 -- -- 87
2019-02-13 09:00:00 5.5 3 Noroeste 7 Noroeste 0 -- -- 94
2019-02-13 08:00:00 2.4 0 Calma 5 Oeste 0 -- -- 96
2019-02-13 07:00:00 3.9 3 Oeste 7 Noroeste 0 -- -- 96
2019-02-13 06:00:00 3.9 3 Noroeste 10 Oeste 0 -- -- 96
2019-02-13 05:00:00 5 6 Oeste 10 Oeste 0 -- -- 96
2019-02-13 04:00:00 5.3 4 Oeste 8 Oeste 0 -- -- 96
2019-02-13 03:00:00 5.3 5 Oeste 8 Oeste 0 -- -- 96
2019-02-13 02:00:00 6 3 Oeste 6 Oeste 0 -- -- 94
2019-02-13 01:00:00 6.7 4 Norte 8 Norte 0 -- -- 94
2019-02-13 00:00:00 7.9 0 Calma 8 Oeste 0 -- -- 94
2019-02-12 23:00:00 9.1 4 Oeste 12 Sudoeste 0 -- -- 93
2019-02-12 22:00:00 9.3 10 Sudoeste 15 Sudoeste 0 -- -- 91
2019-02-12 21:00:00 9.8 12 Sudoeste 17 Sudoeste 0 -- -- 91
2019-02-12 20:00:00 10.2 13 Sudoeste 17 Sudoeste 0 -- -- 87
2019-02-12 19:00:00 10.6 12 Sudoeste 18 Sudoeste 0 -- -- 81
2019-02-12 18:00:00 12.4 17 Sudoeste 24 Sudoeste 0 -- -- 70
2019-02-12 17:00:00 13 19 Sur 25 Sur 0 -- -- 63
2019-02-12 16:00:00 13.6 16 Sur 21 Sudoeste 0 -- -- 58
2019-02-12 15:00:00 14.1 15 Sur 19 Sur 0 -- -- 53
2019-02-12 14:00:00 14.9 2 Sudoeste 9 Noroeste 0 -- -- 49
2019-02-12 13:00:00 13.8 5 Norte 11 Norte 0 -- -- 51
2019-02-12 12:00:00 13 6 Norte 21 Noroeste 0 -- -- 56
2019-02-12 11:00:00 11.5 12 Noroeste 32 Norte 0 -- -- 64
2019-02-12 10:00:00 9.9 18 Norte 31 Norte 0 -- -- 67
2019-02-12 09:00:00 8.3 18 Norte 29 Noroeste 0 -- -- 72
2019-02-12 08:00:00 7.5 15 Noroeste 26 Noroeste 0 -- -- 74
2019-02-12 07:00:00 7.7 12 Norte 21 Noroeste 0 -- -- 74
2019-02-12 06:00:00 7.8 12 Noroeste 19 Noroeste 0 -- -- 75
2019-02-12 05:00:00 7.9 11 Noroeste 24 Noroeste 0 -- -- 76
2019-02-12 04:00:00 8.4 17 Noroeste 28 Noroeste 0 -- -- 74
2019-02-12 03:00:00 8.6 12 Noroeste 30 Norte 0 -- -- 75
2019-02-12 02:00:00 9.5 19 Norte 30 Norte 0 -- -- 71
2019-02-12 01:00:00 9.7 17 Norte 25 Norte 0 -- -- 71
2019-02-12 00:00:00 9.6 5 Noroeste 14 Noroeste 0 -- -- 69
2019-02-11 23:00:00 9.8 5 Noroeste 21 Noroeste 0 -- -- 66
2019-02-11 22:00:00 10.2 7 Noroeste 17 Oeste 0 -- -- 65
2019-02-11 21:00:00 10.6 9 Noroeste 19 Oeste 0 -- -- 63
2019-02-11 20:00:00 11.8 10 Noroeste 26 Oeste 0 -- -- 57
2019-02-11 19:00:00 12.3 10 Noroeste 23 Noroeste 0 -- -- 57
2019-02-11 18:00:00 -- -- -- -- -- -- -- -- --
2019-02-11 17:00:00 15.1 12 Noroeste 36 Noroeste 0 -- -- 49
2019-02-11 16:00:00 -- 20 Noroeste 51 Noroeste 0 -- -- --
2019-02-11 15:00:00 15 19 Noroeste 48 Norte 0 -- -- 48
2019-02-11 14:00:00 14.7 26 Noroeste 49 Norte 0 -- -- 49
2019-02-11 13:00:00 14.5 21 Noroeste 40 Noroeste 0 -- -- 50
2019-02-11 12:00:00 13.3 23 Noroeste 44 Noroeste 0 -- -- 53
2019-02-11 11:00:00 12.3 23 Noroeste -- -- -- -- -- 55
2019-02-11 10:00:00 -- -- -- -- -- -- -- -- --
2019-02-11 09:00:00 10.1 10 Noroeste 40 Oeste 0 -- -- 61
2019-02-11 08:00:00 9.9 18 Noroeste 70 Noroeste 0 -- -- 59
2019-02-11 07:00:00 10.3 31 Noroeste 68 Noroeste 0 -- -- 56
2019-02-11 06:00:00 10.5 8 Noroeste 21 Noroeste 0 -- -- 54
2019-02-11 05:00:00 9.5 9 Sur 32 Sudoeste 0 -- -- 61
2019-02-11 04:00:00 11.4 18 Oeste 35 Sudoeste 0 -- -- 56
2019-02-11 03:00:00 10.6 30 Sudoeste 40 Sudoeste 0 -- -- 65
2019-02-11 02:00:00 11.7 17 Oeste 28 Noroeste 0 -- -- 63
2019-02-11 01:00:00 12.1 18 Oeste 30 Oeste 0 -- -- 65
2019-02-11 00:00:00 12.5 11 Noroeste 25 Norte 0 -- -- 67
2019-02-10 23:00:00 13.6 12 Noroeste 34 Noroeste 0 -- -- 67
2019-02-10 22:00:00 13.7 18 Noroeste 33 Noroeste 0 -- -- 70
2019-02-10 21:00:00 11.8 3 Norte 11 Sudoeste 0 -- -- 83
2019-02-10 20:00:00 12.5 8 Sur 15 Sur 0 -- -- 85
2019-02-10 19:00:00 13.1 7 Sur 21 Sur 0 -- -- 78
2019-02-10 18:00:00 13.5 15 Sur 23 Sur 0 -- -- 76
2019-02-10 17:00:00 14.5 17 Sur 31 Sur 0 -- -- 72
2019-02-10 16:00:00 14.8 21 Sur 26 Sur 0 -- -- 73
2019-02-10 15:00:00 13.7 12 Sur 21 Sur 0 -- -- 84
2019-02-10 14:00:00 14.1 13 Sudoeste 19 Sudoeste 0 -- -- 80
2019-02-10 13:00:00 14.5 13 Sur 16 Sur 0 -- -- 79
2019-02-10 12:00:00 14.7 8 Sudoeste 13 Sudoeste 0 -- -- 64
2019-02-10 11:00:00 11.6 4 Sur 9 Sur 0 -- -- 81
2019-02-10 10:00:00 8.8 0 Calma 8 Oeste 0 -- -- 91
2019-02-10 09:00:00 5 4 Noroeste 11 Norte 0 -- -- 97
2019-02-10 08:00:00 4.2 3 Oeste 8 Sudoeste 0 -- -- 97
2019-02-10 07:00:00 3.8 4 Sudoeste 7 Noroeste 0 -- -- 97
2019-02-10 06:00:00 4.4 2 Sudoeste 8 Noroeste 0 -- -- 97
2019-02-10 05:00:00 5.1 0 Calma 7 Oeste 0 -- -- 97
2019-02-10 04:00:00 6.2 4 Noroeste 6 Noroeste 0 -- -- 97
2019-02-10 03:00:00 6.7 4 Noroeste 7 Noroeste 0 -- -- 97
2019-02-10 02:00:00 7.7 0 Calma 3 Norte 0 -- -- 96
2019-02-10 01:00:00 8 0 Calma -- -- 0 -- -- 94
2019-02-10 00:00:00 8.1 0 Calma 6 Noroeste 0 -- -- 93
2019-02-09 23:00:00 8.9 0 Calma 7 Sudoeste 0 -- -- 92
2019-02-09 22:00:00 9.5 4 Sudoeste 9 Sudoeste 0 -- -- 92
2019-02-09 21:00:00 10.1 6 Sudoeste 9 Sudoeste 0 -- -- 93
2019-02-09 20:00:00 10.9 5 Sudoeste 11 Sudoeste 0 -- -- 93
2019-02-09 19:00:00 11.7 10 Sudoeste 14 Sudoeste 0 -- -- 93
2019-02-09 18:00:00 13.4 4 Sur 10 Sudoeste 0 -- -- 87
2019-02-09 17:00:00 14.2 8 Sur 12 Sur 0 -- -- 80
2019-02-09 16:00:00 14.8 10 Sur 15 Sudeste 0 -- -- 80
2019-02-09 15:00:00 14.7 12 Sudeste 17 Sudeste 0 -- -- 83
2019-02-09 14:00:00 14.7 12 Sudeste 19 Sudeste 0 -- -- 78
2019-02-09 13:00:00 14.4 3 Este 13 Este 0 -- -- 77
2019-02-09 12:00:00 14.2 4 Nordeste 16 Nordeste 0 -- -- 76
2019-02-09 11:00:00 11.8 3 Noroeste 9 Norte 0 -- -- 81
2019-02-09 10:00:00 9.1 7 Norte 9 Norte 0 -- -- 95
2019-02-09 09:00:00 8.1 4 Sur 6 Sur 0 -- -- 97
2019-02-09 08:00:00 6.4 0 Calma 8 Nordeste 0 -- -- 97
2019-02-09 07:00:00 6.8 5 Oeste 8 Oeste 0.1 -- -- 97
2019-02-09 06:00:00 6.2 5 Noroeste 7 Noroeste 0 -- -- 97
2019-02-09 05:00:00 6.5 4 Noroeste 10 Oeste 0 -- -- 97
2019-02-09 04:00:00 6.3 4 Sudoeste 8 Noroeste 0 -- -- 97
2019-02-09 03:00:00 7 4 Noroeste 9 Oeste 0 -- -- 97
2019-02-09 02:00:00 7.8 0 Calma 4 Nordeste 0 -- -- 97
2019-02-09 01:00:00 7.8 4 Norte 6 Noroeste 0 -- -- 97
2019-02-09 00:00:00 7.2 0 Calma 4 Norte 0 -- -- 96
2019-02-08 23:00:00 8.7 3 Norte 4 Norte 0 -- -- 96
2019-02-08 22:00:00 9.7 0 Calma 6 Sudoeste 0 -- -- 96
2019-02-08 21:00:00 10.5 5 Sudoeste 11 Sur 0 -- -- 96
2019-02-08 20:00:00 11.3 10 Sur 17 Sur 0 -- -- 94
2019-02-08 19:00:00 11.8 13 Sudoeste 21 Sudoeste 0 -- -- 94
2019-02-08 18:00:00 12.7 17 Sur 24 Sudoeste 0 -- -- 91
2019-02-08 17:00:00 13.6 18 Sur 26 Sudoeste 0 -- -- 86
2019-02-08 16:00:00 14.3 18 Sur 24 Sudoeste 0 -- -- 83
2019-02-08 15:00:00 14.4 18 Sur 23 Sur 0 -- -- 78
2019-02-08 14:00:00 14.1 14 Sur 20 Sur 0 -- -- 76
2019-02-08 13:00:00 14.3 9 Sur 13 Sudeste 0 -- -- 72
2019-02-08 12:00:00 13.7 4 Sur 8 Sur 0 -- -- 72
2019-02-08 11:00:00 11.2 0 Calma 8 Noroeste 0 -- -- 81
2019-02-08 10:00:00 8 3 Noroeste 8 Oeste 0 -- -- 94
2019-02-08 09:00:00 5.8 5 Oeste 7 Oeste 0 -- -- 97
2019-02-08 08:00:00 4.8 0 Calma 4 Oeste 0.1 -- -- 97
2019-02-08 07:00:00 5.8 0 Calma 5 Sur 0 -- -- 97
2019-02-08 06:00:00 5.8 5 Sudoeste 13 Sudoeste 0 -- -- 97
2019-02-08 05:00:00 6 3 Norte 8 Sudeste 0 -- -- 97
2019-02-08 04:00:00 6.6 2 Noroeste 6 Noroeste 0 -- -- 97
2019-02-08 03:00:00 6.6 4 Norte 7 Noroeste 0 -- -- 97
2019-02-08 02:00:00 7.3 0 Calma 4 Sudoeste 0 -- -- 96
2019-02-08 01:00:00 8.6 2 Norte 6 Nordeste 0 -- -- 96
2019-02-08 00:00:00 9.1 2 Sudeste 11 Nordeste 0 -- -- 96
2019-02-07 23:00:00 9.5 0 Calma 8 Sur 0 -- -- 96
2019-02-07 22:00:00 9.9 4 Sur 10 Sur 0 -- -- 96
2019-02-07 21:00:00 10.4 5 Sur 9 Sur 0 -- -- 96
2019-02-07 20:00:00 10.9 6 Sudeste 12 Sudeste 0 -- -- 94
2019-02-07 19:00:00 11.4 2 Sur 8 Sudoeste 0 -- -- 89
2019-02-07 18:00:00 12.8 9 Sur 13 Sudoeste 0 -- -- 82
2019-02-07 17:00:00 13.8 10 Sur 14 Sur 0 -- -- 75
2019-02-07 16:00:00 14.1 10 Sur 16 Sur 0 -- -- 75
2019-02-07 15:00:00 13.9 7 Sur 14 Sur 0 -- -- 75
2019-02-07 14:00:00 14.3 9 Sur 14 Sudeste 0 -- -- 75
2019-02-07 13:00:00 13.4 7 Sur 14 Sur 0 -- -- 78
2019-02-07 12:00:00 12.7 0 Calma 7 Sudeste 0 -- -- 85
2019-02-07 11:00:00 9.1 0 Calma 3 Noroeste 0 -- -- 97
2019-02-07 10:00:00 8.1 0 Calma 2 Nordeste 0 -- -- 97
2019-02-07 09:00:00 6.5 0 Calma 5 Sudoeste 0 -- -- 97
2019-02-07 08:00:00 6.2 0 Calma 8 Oeste 0 -- -- 97
2019-02-07 07:00:00 6.4 0 Calma 6 Norte 0 -- -- 97
2019-02-07 06:00:00 5.6 0 Calma 6 Sur 0 -- -- 97
2019-02-07 05:00:00 5.9 3 Oeste 8 Sudoeste 0 -- -- 97
2019-02-07 04:00:00 6.2 3 Sur 5 Sur 0 -- -- 97
2019-02-07 03:00:00 7.4 0 Calma 3 Norte 0 -- -- 97
2019-02-07 02:00:00 7.1 0 Calma 3 Norte 0 -- -- 97
2019-02-07 01:00:00 8.5 3 Sudoeste 5 Sudoeste 0 -- -- 96
2019-02-07 00:00:00 9 0 Calma 4 Noroeste 0 -- -- 96
2019-02-06 23:00:00 8.8 3 Oeste 6 Oeste 0 -- -- 96
2019-02-06 22:00:00 10.4 5 Sudoeste 7 Sur 0 -- -- 95
2019-02-06 21:00:00 10.7 5 Sur 8 Sudoeste 0 -- -- 96
2019-02-06 20:00:00 10.8 9 Sudoeste 12 Sudoeste 0 -- -- 93
2019-02-06 19:00:00 11.8 10 Sudoeste 15 Sudoeste 0 -- -- 92
2019-02-06 18:00:00 13.2 12 Sudoeste 17 Sudoeste 0 -- -- 86
2019-02-06 17:00:00 14.2 14 Sur 19 Sudoeste 0 -- -- 77
2019-02-06 16:00:00 15 15 Sur 18 Sur 0 -- -- 71
2019-02-06 15:00:00 15.4 13 Sur 17 Sur 0 -- -- 66
2019-02-06 14:00:00 16 9 Sur 12 Sur 0 -- -- 60
2019-02-06 13:00:00 15.6 8 Sur 12 Sur 0 -- -- 61
2019-02-06 12:00:00 15.6 3 Sur 9 Norte 0 -- -- 60
2019-02-06 11:00:00 13.4 5 Norte 9 Norte 0 -- -- 71
2019-02-06 10:00:00 10.7 3 Norte 6 Norte 0 -- -- 85
2019-02-06 09:00:00 8.3 0 Calma 5 Norte 0 -- -- 97
2019-02-06 08:00:00 7.7 4 Norte 5 Norte 0 -- -- 97
2019-02-06 07:00:00 7.1 0 Calma 6 Noroeste 0 -- -- 97
2019-02-06 06:00:00 7.3 4 Sudoeste 9 Sudoeste 0 -- -- 97
2019-02-06 05:00:00 7.7 0 Calma 8 Sudoeste 0 -- -- 97
2019-02-06 04:00:00 8.8 0 Calma 5 Norte 0 -- -- 96
2019-02-06 03:00:00 9.2 2 Sudoeste 9 Sudoeste 0 -- -- 96
2019-02-06 02:00:00 9.9 3 Oeste 14 Sudoeste 0 -- -- 96
2019-02-06 01:00:00 9.6 11 Sudoeste 14 Sudoeste 0 -- -- 94
2019-02-06 00:00:00 10 7 Sudoeste 12 Sudoeste 0 -- -- 96
2019-02-05 23:00:00 10 4 Oeste 10 Sudoeste 0 -- -- 95
2019-02-05 22:00:00 10.5 4 Oeste 12 Sur 0 -- -- 96
2019-02-05 21:00:00 11 8 Sur 13 Sur 0 -- -- 94
2019-02-05 20:00:00 11.4 9 Sudoeste 14 Sudoeste 0 -- -- 93
2019-02-05 19:00:00 11.8 10 Sur 18 Sudoeste 0 -- -- 88
2019-02-05 18:00:00 13.1 12 Sur 20 Sur 0 -- -- 84
2019-02-05 17:00:00 14.6 15 Sur 22 Sudoeste 0 -- -- 73
2019-02-05 16:00:00 15.7 16 Sur 22 Sur 0 -- -- 62
2019-02-05 15:00:00 15.8 14 Sur 18 Sudeste 0 -- -- 69
2019-02-05 14:00:00 16 11 Sur 15 Sudeste 0 -- -- 65
2019-02-05 13:00:00 15.5 5 Sudeste 11 Sudeste 0 -- -- 67
2019-02-05 12:00:00 14.3 7 Sur 12 Sudeste 0 -- -- 72
2019-02-05 11:00:00 13.9 3 Sur 6 Sur 0 -- -- 71
2019-02-05 10:00:00 11.5 3 Oeste 9 Sudeste 0 -- -- 82
2019-02-05 09:00:00 8.6 3 Sudeste 8 Sudeste 0 -- -- 88
2019-02-05 08:00:00 7.9 0 Calma 5 Nordeste 0 -- -- 88
2019-02-05 07:00:00 7.9 0 Calma 7 Nordeste 0 -- -- 86
2019-02-05 06:00:00 8 0 Calma 6 Nordeste 0 -- -- 87
2019-02-05 05:00:00 8.9 0 Calma 7 Nordeste 0 -- -- 79
2019-02-05 04:00:00 9.1 4 Nordeste 8 Nordeste 0 -- -- 75
2019-02-05 03:00:00 7.7 0 Calma 6 Nordeste 0 -- -- 80
2019-02-05 02:00:00 7.6 2 Norte 8 Norte 0 -- -- 81
2019-02-05 01:00:00 7.5 0 Calma 5 Oeste 0 -- -- 87
2019-02-05 00:00:00 7.4 2 Noroeste 6 Norte 0 -- -- 88
2019-02-04 23:00:00 7.4 0 Calma 5 Noroeste 0 -- -- 88
2019-02-04 22:00:00 7.6 3 Noroeste 6 Oeste 0 -- -- 88
2019-02-04 21:00:00 8.5 4 Sur 8 Sur 0 -- -- 83
2019-02-04 20:00:00 9.5 5 Sur 6 Sur 0 -- -- 80
2019-02-04 19:00:00 9.4 5 Sur 12 Sudoeste 0 -- -- 76
2019-02-04 18:00:00 9.9 8 Sur 19 Sudoeste 0 -- -- 66
2019-02-04 17:00:00 11.9 15 Sur 23 Sur 0 -- -- 59
2019-02-04 16:00:00 12.2 18 Sur 23 Sur 0 -- -- 54
2019-02-04 15:00:00 12.2 18 Sur 22 Sur 0 -- -- 54
2019-02-04 14:00:00 12.1 15 Sur 19 Sur 0 -- -- 50
2019-02-04 13:00:00 12.3 12 Sur 18 Sur 0 -- -- 49
2019-02-04 12:00:00 12.6 0 Calma 19 Norte 0 -- -- 45
2019-02-04 11:00:00 10.5 4 Norte 17 Noroeste 0 -- -- 51
2019-02-04 10:00:00 9.4 8 Noroeste 24 Noroeste 0 -- -- 57
2019-02-04 09:00:00 7.7 9 Noroeste 28 Noroeste 0 -- -- 60
2019-02-04 08:00:00 6.1 12 Oeste 36 Noroeste 0 -- -- 64
2019-02-04 07:00:00 6.2 14 Noroeste 34 Noroeste 0 -- -- 64
2019-02-04 06:00:00 6.2 9 Noroeste 29 Noroeste 0 -- -- 64
2019-02-04 05:00:00 5.7 9 Noroeste 40 Noroeste 0 -- -- 67
2019-02-04 04:00:00 6.1 17 Noroeste 39 Noroeste 0 -- -- 64
2019-02-04 03:00:00 6.2 16 Noroeste 48 Noroeste 0 -- -- 64
2019-02-04 02:00:00 6 15 Noroeste 50 Noroeste 0 -- -- 63
2019-02-04 01:00:00 5.9 13 Noroeste 39 Noroeste 0 -- -- 61
2019-02-04 00:00:00 6.1 17 Noroeste 54 Noroeste 0 -- -- 60
2019-02-03 23:00:00 6.4 24 Noroeste 57 Noroeste 0 -- -- 55
2019-02-03 22:00:00 6.7 24 Noroeste 49 Noroeste 0 -- -- 52
2019-02-03 21:00:00 7.5 21 Noroeste 47 Noroeste 0 -- -- 44
2019-02-03 20:00:00 7.4 15 Noroeste 40 Noroeste 0 -- -- 44
2019-02-03 19:00:00 8.2 12 Noroeste 36 Noroeste 0 -- -- 44
2019-02-03 18:00:00 8.9 13 Noroeste 54 Noroeste 0 -- -- 43
2019-02-03 17:00:00 10.2 20 Noroeste 59 Noroeste 0 -- -- 40
2019-02-03 16:00:00 10.9 21 Noroeste 65 Noroeste 0 -- -- 40
2019-02-03 15:00:00 11.2 26 Noroeste 66 Noroeste 0 -- -- 42
2019-02-03 14:00:00 10.6 26 Noroeste 60 Noroeste 0 -- -- 44
2019-02-03 13:00:00 10 28 Noroeste 67 Noroeste 0 -- -- 47
2019-02-03 12:00:00 9.2 26 Noroeste 69 Noroeste 0 -- -- 50
2019-02-03 11:00:00 7.8 23 Noroeste 68 Noroeste 0 -- -- 54
2019-02-03 10:00:00 6.8 24 Noroeste 65 Oeste 0 -- -- 58
2019-02-03 09:00:00 5.9 27 Noroeste 67 Noroeste 0 -- -- 59
2019-02-03 08:00:00 5.1 25 Noroeste 61 Noroeste 0 -- -- 61
2019-02-03 07:00:00 5.1 23 Noroeste 68 Oeste 0 -- -- 61
2019-02-03 06:00:00 5.2 30 Noroeste 73 Noroeste 0 -- -- 64
2019-02-03 05:00:00 5.4 30 Noroeste 72 Noroeste 0 -- -- 65
2019-02-03 04:00:00 5.6 27 Noroeste 67 Noroeste 0 -- -- 66
2019-02-03 03:00:00 5.9 26 Noroeste 65 Oeste 0 -- -- 66
2019-02-03 02:00:00 6 22 Noroeste 68 Noroeste 0 -- -- 65
2019-02-03 01:00:00 6.4 27 Noroeste 69 Noroeste 0 -- -- 65
2019-02-03 00:00:00 6.4 28 Noroeste 77 Noroeste 0 -- -- 65
2019-02-02 23:00:00 6.7 35 Noroeste 79 Oeste 0 -- -- 63
2019-02-02 22:00:00 6.8 31 Noroeste 70 Noroeste 0 -- -- 61
2019-02-02 21:00:00 7.4 25 Noroeste 76 Noroeste 0 -- -- 57
2019-02-02 20:00:00 8.2 28 Noroeste 81 Oeste 0 -- -- 55
2019-02-02 19:00:00 8.7 33 Noroeste 80 Noroeste 0 -- -- 54
2019-02-02 18:00:00 9.4 24 Noroeste 66 Oeste 0 -- -- 54
2019-02-02 17:00:00 10.2 23 Noroeste 75 Noroeste 0 -- -- 54
2019-02-02 16:00:00 10.5 36 Noroeste 85 Noroeste 0 -- -- 55
2019-02-02 15:00:00 11.5 33 Noroeste 76 Noroeste 0 -- -- 54
2019-02-02 14:00:00 11.6 31 Noroeste 56 Noroeste 0 -- -- 55
2019-02-02 13:00:00 11.2 17 Noroeste 43 Noroeste 0 -- -- 55
2019-02-02 12:00:00 9.9 12 Noroeste 28 Noroeste 0 -- -- 61
2019-02-02 11:00:00 9.1 15 Noroeste 37 Oeste 0 -- -- 65
2019-02-02 10:00:00 9.2 5 Noroeste 46 Oeste 0 -- -- 64
2019-02-02 09:00:00 9.3 20 Noroeste 38 Oeste 0 -- -- 63
2019-02-02 08:00:00 9.1 11 Noroeste 37 Oeste 0 -- -- 65
2019-02-02 07:00:00 8.9 11 Noroeste 31 Noroeste 0 -- -- 66
2019-02-02 06:00:00 9.3 13 Noroeste 34 Noroeste 0 -- -- 64
2019-02-02 05:00:00 9.1 6 Norte 30 Oeste 0 -- -- 70
2019-02-02 04:00:00 10 14 Noroeste 34 Noroeste 0 -- -- 61
2019-02-02 03:00:00 10.2 12 Noroeste 47 Oeste 0 -- -- 58
2019-02-02 02:00:00 10.2 15 Oeste 31 Oeste 0 -- -- 55
2019-02-02 01:00:00 8.7 6 Sudoeste 20 Oeste 0 -- -- 67
2019-02-02 00:00:00 8.8 4 Sudoeste 18 Noroeste 0 -- -- 70
2019-02-01 23:00:00 9.6 7 Noroeste 50 Noroeste 0.1 -- -- 67
2019-02-01 22:00:00 10 17 Noroeste 34 Norte 0 -- -- 78
2019-02-01 21:00:00 11.8 9 Sudoeste 14 Sudoeste 0 -- -- 82
2019-02-01 20:00:00 11.5 12 Sudeste 19 Sudeste 0 -- -- 86
2019-02-01 19:00:00 12 10 Sudeste 13 Sudeste 0 -- -- 86
2019-02-01 18:00:00 13.6 10 Sudeste 13 Sudeste 0 -- -- 76
2019-02-01 17:00:00 15.5 3 Nordeste 9 Nordeste 0 -- -- 60
2019-02-01 16:00:00 14.4 3 Norte 24 Norte -- -- -- 66
2019-02-01 15:00:00 14.8 3 Este 18 Sudeste 0.2 -- -- 70
2019-02-01 14:00:00 16.7 2 Norte 14 Sur 0 -- -- 58
2019-02-01 13:00:00 15.9 10 Sur 15 Sur 0 -- -- 61
2019-02-01 12:00:00 14.4 0 Calma 6 Noroeste 0 -- -- 68
2019-02-01 11:00:00 12.5 0 Calma 16 Noroeste 0 -- -- 76
2019-02-01 10:00:00 11.6 5 Noroeste 27 Norte 0 -- -- 87
2019-02-01 09:00:00 11.2 15 Noroeste 45 Noroeste 0.4 -- -- 91
2019-02-01 08:00:00 13.9 29 Sudoeste 51 Sudoeste 0 -- -- 82
2019-02-01 07:00:00 13.9 37 Sudoeste 52 Sudoeste 0 -- -- 81
2019-02-01 06:00:00 14 34 Sudoeste 45 Sudoeste 0 -- -- 82
2019-02-01 05:00:00 14.3 34 Sudoeste 47 Sudoeste 0 -- -- 79
2019-02-01 04:00:00 14.3 33 Sudoeste 56 Sudoeste 0 -- -- 77
2019-02-01 03:00:00 14.3 30 Sudoeste 56 Sudoeste 0 -- -- 76
2019-02-01 02:00:00 13.6 26 Sudoeste 49 Sudoeste 0 -- -- 83
2019-02-01 01:00:00 13.9 31 Sudoeste 41 Sudoeste 0 -- -- 82
2019-02-01 00:00:00 11.9 12 Sur 18 Oeste 0 -- -- 89
2019-01-31 23:00:00 11.7 8 Sudoeste 14 Sudoeste 0 -- -- 91
2019-01-31 22:00:00 11 2 Oeste 12 Noroeste 0 -- -- 92
2019-01-31 21:00:00 11.1 0 Calma 8 Sudeste 0 -- -- 93
2019-01-31 20:00:00 11.6 5 Sudoeste 9 Sur 0 -- -- 93
2019-01-31 19:00:00 12.1 5 Oeste 15 Sudeste 0 -- -- 91
2019-01-31 18:00:00 13.2 0 Calma 9 Sudeste 0 -- -- 78
2019-01-31 17:00:00 14.4 5 Sudeste 13 Sudeste 0 -- -- 71
2019-01-31 16:00:00 14.8 7 Sudeste 12 Sudeste 0 -- -- 66
2019-01-31 15:00:00 15.9 3 Sudeste 6 Sudeste 0 -- -- 60
2019-01-31 14:00:00 14.2 2 Nordeste 10 Sudeste 0 -- -- 62
2019-01-31 13:00:00 13.9 2 Sur 6 Sudeste 0 -- -- 60
2019-01-31 12:00:00 11.7 0 Calma 10 Oeste 0 -- -- 65
2019-01-31 11:00:00 10.9 4 Oeste 10 Oeste 0 -- -- 73
2019-01-31 10:00:00 10.2 0 Calma 9 Oeste 0 -- -- 82
2019-01-31 09:00:00 7.7 3 Oeste 7 Oeste 0 -- -- 91
2019-01-31 08:00:00 7.5 2 Oeste 8 Noroeste 0 -- -- 90
2019-01-31 07:00:00 7.4 2 Noroeste 6 Oeste 0 -- -- 91
2019-01-31 06:00:00 7.4 4 Oeste 10 Noroeste 0 -- -- 87
2019-01-31 05:00:00 7.8 0 Calma 9 Oeste 0 -- -- 86
2019-01-31 04:00:00 8 5 Oeste 14 Oeste 0 -- -- 87
2019-01-31 03:00:00 9 3 Norte 12 Norte 0 -- -- 83
2019-01-31 02:00:00 8 5 Norte 9 Norte 0 -- -- 80
2019-01-31 01:00:00 7.8 4 Noroeste 14 Noroeste 0 -- -- 75
2019-01-31 00:00:00 7.2 6 Noroeste 10 Oeste 0 -- -- 77
2019-01-30 23:00:00 7 4 Noroeste 8 Noroeste 0 -- -- 79
2019-01-30 22:00:00 10 7 Sudeste 10 Sudeste 0 -- -- 82
2019-01-30 21:00:00 9.7 4 Sudeste 8 Sudeste 0 -- -- 67
2019-01-30 20:00:00 10.1 0 Calma 6 Sudeste 0 -- -- 61
2019-01-30 19:00:00 11 2 Sudeste 13 Sudoeste 0 -- -- 56
2019-01-30 18:00:00 12.1 8 Sudoeste 17 Noroeste 0 -- -- 56
2019-01-30 17:00:00 13.5 6 Noroeste 24 Noroeste 0 -- -- 48
2019-01-30 16:00:00 14.7 9 Noroeste 27 Noroeste 0 -- -- 43
2019-01-30 15:00:00 15.2 10 Noroeste 32 Sudoeste 0 -- -- 40
2019-01-30 14:00:00 14.8 13 Oeste 39 Oeste 0 -- -- 40
2019-01-30 13:00:00 14.2 13 Oeste 35 Oeste 0 -- -- 45
2019-01-30 12:00:00 12.7 9 Noroeste 24 Noroeste 0 -- -- 50
2019-01-30 11:00:00 11 11 Sur 18 Sudeste 0 -- -- 55
2019-01-30 10:00:00 10.2 7 Sur 33 Oeste 0 -- -- 56
2019-01-30 09:00:00 9 12 Noroeste 47 Noroeste 0 -- -- 59
2019-01-30 08:00:00 8.7 15 Noroeste 45 Noroeste 0 -- -- 59
2019-01-30 07:00:00 8.6 22 Noroeste 50 Noroeste 0 -- -- 59
2019-01-30 06:00:00 8.4 18 Noroeste 67 Noroeste 0 -- -- 61
2019-01-30 05:00:00 8.7 23 Noroeste 58 Noroeste 0 -- -- 61
2019-01-30 04:00:00 8.9 26 Noroeste 67 Noroeste 0 -- -- 61
2019-01-30 03:00:00 9.1 31 Noroeste 59 Noroeste 0 -- -- 61
2019-01-30 02:00:00 9.3 22 Noroeste 59 Noroeste 0 -- -- 63
2019-01-30 01:00:00 9.6 26 Noroeste 77 Noroeste 0 -- -- 64
2019-01-30 00:00:00 9.9 29 Noroeste 81 Noroeste 0 -- -- 65
2019-01-29 23:00:00 10.4 28 Noroeste 53 Oeste 0 -- -- 65
2019-01-29 22:00:00 9.7 19 Noroeste 39 Noroeste 0 -- -- 77
2019-01-29 21:00:00 9.2 9 Oeste 33 Norte 1.6 -- -- 83
2019-01-29 20:00:00 9.5 9 Norte 24 Norte 0.2 -- -- 92
2019-01-29 19:00:00 9.7 5 Sudeste 6 Sudeste 0 -- -- 86
2019-01-29 18:00:00 11.3 0 Calma 5 Norte 0.1 -- -- 80
2019-01-29 17:00:00 11.9 3 Sudeste 14 Sudeste 0 -- -- 71
2019-01-29 16:00:00 11.9 8 Sudeste 10 Sudeste 0 -- -- 69
2019-01-29 15:00:00 11.4 7 Sur 17 Sudeste 0 -- -- 67
2019-01-29 14:00:00 12.1 10 Sudeste 16 Sudeste 0 -- -- 60
2019-01-29 13:00:00 10.5 2 Sudeste 10 Sudeste 0 -- -- 65
2019-01-29 12:00:00 9.6 8 Sudeste 29 Noroeste 0 -- -- 65
2019-01-29 11:00:00 10.3 21 Noroeste 40 Noroeste 0 -- -- 60
2019-01-29 10:00:00 10.1 3 Nordeste 53 Noroeste 0 -- -- 60
2019-01-29 09:00:00 10 12 Noroeste 45 Oeste 0 -- -- 60
2019-01-29 08:00:00 9.6 11 Noroeste -- -- -- -- -- 60
2019-01-29 07:00:00 -- -- -- -- -- -- -- -- --
2019-01-29 06:00:00 10.1 12 Noroeste 36 Norte 0 -- -- 58
2019-01-29 05:00:00 10.1 5 Nordeste 26 Sudeste 0 -- -- 58
2019-01-29 04:00:00 9.5 4 Sudeste 31 Noroeste 0 -- -- 60
2019-01-29 03:00:00 9.7 14 Noroeste 60 Oeste 0 -- -- 63
2019-01-29 02:00:00 10.5 21 Noroeste 52 Noroeste 0 -- -- 59
2019-01-29 01:00:00 10.6 22 Noroeste 62 Noroeste 0 -- -- 58
2019-01-29 00:00:00 10.8 29 Noroeste 72 Noroeste 0 -- -- 58
2019-01-28 23:00:00 11.3 32 Noroeste 72 Noroeste 0 -- -- 56
2019-01-28 22:00:00 10.9 27 Noroeste 62 Norte 0 -- -- 59
2019-01-28 21:00:00 10.9 22 Noroeste 53 Noroeste 0 -- -- 59
2019-01-28 20:00:00 11.2 21 Noroeste 67 Noroeste 0 -- -- 57
2019-01-28 19:00:00 12 20 Noroeste 69 Noroeste 0 -- -- 55
2019-01-28 18:00:00 12.5 23 Noroeste 73 Noroeste 0 -- -- 53
2019-01-28 17:00:00 13.4 35 Noroeste 76 Noroeste 0 -- -- 53
2019-01-28 16:00:00 14.5 27 Noroeste 77 Noroeste 0 -- -- 51
2019-01-28 15:00:00 14.8 30 Noroeste 72 Noroeste 0 -- -- 52
2019-01-28 14:00:00 14.7 36 Noroeste 75 Noroeste 0 -- -- 50
2019-01-28 13:00:00 14.5 39 Noroeste 78 Noroeste 0 -- -- 49
2019-01-28 12:00:00 13.7 37 Noroeste 74 Noroeste 0 -- -- 50
2019-01-28 11:00:00 13.5 29 Noroeste 56 Noroeste 0 -- -- 49
2019-01-28 10:00:00 12.3 24 Noroeste 54 Oeste 0 -- -- 52
2019-01-28 09:00:00 10.2 21 Noroeste 39 Noroeste 0 -- -- 56
2019-01-28 08:00:00 -- 11 Noroeste -- -- -- -- -- --
2019-01-28 07:00:00 -- -- -- -- -- -- -- -- --
2019-01-28 06:00:00 -- -- -- -- -- -- -- -- --
2019-01-28 05:00:00 -- -- -- -- -- -- -- -- --
2019-01-28 04:00:00 -- -- -- -- -- -- -- -- --
2019-01-28 03:00:00 -- -- -- -- -- -- -- -- --
2019-01-28 02:00:00 -- -- -- -- -- -- -- -- --
2019-01-28 01:00:00 -- -- -- -- -- -- -- -- --
2019-01-28 00:00:00 -- -- -- -- -- -- -- -- --
2019-01-27 23:00:00 -- -- -- -- -- -- -- -- --
2019-01-27 22:00:00 -- -- -- -- -- -- -- -- --
2019-01-27 21:00:00 -- -- -- -- -- -- -- -- --
2019-01-27 20:00:00 -- -- -- -- -- -- -- -- --
2019-01-27 19:00:00 -- -- -- -- -- -- -- -- --
2019-01-27 18:00:00 -- -- -- -- -- -- -- -- --
2019-01-27 17:00:00 -- -- -- -- -- -- -- -- --
2019-01-27 16:00:00 -- -- -- -- -- -- -- -- --
2019-01-27 15:00:00 -- -- -- -- -- -- -- -- --
2019-01-27 14:00:00 -- -- -- -- -- -- -- -- --
2019-01-27 13:00:00 -- -- -- -- -- -- -- -- --
2019-01-27 12:00:00 -- -- -- -- -- -- -- -- --
2019-01-27 11:00:00 -- -- -- -- -- -- -- -- --
2019-01-27 10:00:00 13.4 10 Oeste 21 Oeste 0 -- -- 54
2019-01-27 09:00:00 9.6 0 Calma 15 Oeste 0 -- -- 71
2019-01-27 08:00:00 10.4 9 Oeste 20 Noroeste 0 -- -- 65
2019-01-27 07:00:00 8.1 5 Oeste 14 Oeste 0 -- -- 75
2019-01-27 06:00:00 7.6 3 Oeste 10 Oeste 0 -- -- 87
2019-01-27 05:00:00 5.9 0 Calma 16 Noroeste 0 -- -- 89
2019-01-27 04:00:00 6.5 3 Noroeste 11 Noroeste 0 -- -- 92
2019-01-27 03:00:00 6.2 5 Noroeste 8 Norte 0 -- -- 93
2019-01-27 02:00:00 7 4 Noroeste 8 Noroeste 0 -- -- 92
2019-01-27 01:00:00 7.2 5 Norte 10 Noroeste 0 -- -- 92
2019-01-27 00:00:00 7.8 5 Oeste 7 Oeste 0 -- -- 93
2019-01-26 23:00:00 8.5 4 Oeste 9 Sudoeste 0 -- -- 96
2019-01-26 22:00:00 9.4 6 Sudoeste 8 Sudoeste 0 -- -- 96
2019-01-26 21:00:00 9.5 2 Sudoeste 5 Sudoeste 0 -- -- 94
2019-01-26 20:00:00 10.5 3 Noroeste 9 Sudoeste 0 -- -- 93
2019-01-26 19:00:00 11.4 7 Sudoeste 12 Sur 0 -- -- 91
2019-01-26 18:00:00 12.9 10 Sur 19 Sur 0 -- -- 89
2019-01-26 17:00:00 14.2 14 Sur 23 Sur 0 -- -- 83
2019-01-26 16:00:00 14.7 17 Sur 24 Sur 0 -- -- 77
2019-01-26 15:00:00 15.7 18 Sur 23 Sur 0 -- -- 64
2019-01-26 14:00:00 15.4 15 Sur 22 Sudeste 0 -- -- 61
2019-01-26 13:00:00 16.2 8 Sudeste 14 Sur 0 -- -- 56
2019-01-26 12:00:00 16.2 0 Calma 13 Sudeste 0 -- -- 53
2019-01-26 11:00:00 14.7 0 Calma 8 Norte 0 -- -- 59
2019-01-26 10:00:00 12.6 3 Noroeste 14 Norte 0 -- -- 66
2019-01-26 09:00:00 8.9 5 Sudoeste 10 Sudoeste 0 -- -- 79
2019-01-26 08:00:00 8 2 Sudeste 13 Noroeste 0 -- -- 79
2019-01-26 07:00:00 10 7 Noroeste 25 Noroeste 0 -- -- 74
2019-01-26 06:00:00 11 8 Noroeste 29 Noroeste 0 -- -- 69
2019-01-26 05:00:00 11.8 12 Noroeste 37 Noroeste 0 -- -- 66
2019-01-26 04:00:00 11.9 13 Noroeste 41 Noroeste 0 -- -- 65
2019-01-26 03:00:00 12.4 19 Noroeste 41 Oeste 0 -- -- 65
2019-01-26 02:00:00 11.9 13 Noroeste 44 Noroeste 0 -- -- 66
2019-01-26 01:00:00 12.1 22 Noroeste 54 Noroeste 0 -- -- 65
2019-01-26 00:00:00 12.3 24 Noroeste 45 Oeste 0 -- -- 65
2019-01-25 23:00:00 12.2 22 Noroeste 44 Noroeste 0 -- -- 65
2019-01-25 22:00:00 12.2 18 Noroeste 47 Noroeste 0 -- -- 65
2019-01-25 21:00:00 12.6 17 Noroeste 52 Noroeste 0 -- -- 64
2019-01-25 20:00:00 13.3 17 Noroeste 54 Noroeste 0 -- -- 63
2019-01-25 19:00:00 13.8 17 Noroeste 45 Noroeste 0 -- -- 61
2019-01-25 18:00:00 14.2 12 Noroeste 35 Noroeste 0 -- -- 61
2019-01-25 17:00:00 16.1 14 Noroeste 43 Noroeste 0 -- -- 56
2019-01-25 16:00:00 15.8 13 Noroeste 44 Noroeste 0 -- -- 58
2019-01-25 15:00:00 16.3 18 Noroeste 50 Noroeste 0 -- -- 55
2019-01-25 14:00:00 17 16 Noroeste 53 Noroeste 0 -- -- 57
2019-01-25 13:00:00 15.8 22 Noroeste 60 Noroeste 0 -- -- 58
2019-01-25 12:00:00 15.3 14 Noroeste 44 Oeste 0 -- -- 61
2019-01-25 11:00:00 14.2 17 Noroeste 48 Noroeste 0 -- -- 63
2019-01-25 10:00:00 12.6 23 Noroeste 41 Norte 0 -- -- 69
2019-01-25 09:00:00 11 15 Noroeste 38 Noroeste 0 -- -- 72
2019-01-25 08:00:00 9.5 10 Noroeste 28 Noroeste 0 -- -- 76
2019-01-25 07:00:00 9 13 Noroeste 32 Norte 0 -- -- 74
2019-01-25 06:00:00 8.8 23 Noroeste 42 Noroeste 0 -- -- 70
2019-01-25 05:00:00 8.7 22 Noroeste 37 Noroeste 0 -- -- 67
2019-01-25 04:00:00 8.1 21 Noroeste 37 Noroeste 0 -- -- 66
2019-01-25 03:00:00 8 18 Norte 32 Noroeste 0 -- -- 65
2019-01-25 02:00:00 7.8 16 Noroeste 28 Noroeste 0 -- -- 64
2019-01-25 01:00:00 7.6 9 Noroeste 35 Noroeste 0 -- -- 64
2019-01-25 00:00:00 7.9 18 Noroeste 42 Noroeste 0 -- -- 63
2019-01-24 23:00:00 8.2 29 Noroeste 48 Noroeste 0 -- -- 59
2019-01-24 22:00:00 7.6 14 Noroeste 33 Noroeste 0 -- -- 62
2019-01-24 21:00:00 8 16 Noroeste 35 Noroeste 0 -- -- 62
2019-01-24 20:00:00 8.4 14 Noroeste 35 Noroeste 0 -- -- 60
2019-01-24 19:00:00 8.6 11 Noroeste 30 Noroeste 0 -- -- 60
2019-01-24 18:00:00 9.4 10 Noroeste 44 Noroeste 0 -- -- 55
2019-01-24 17:00:00 10.5 15 Noroeste 47 Noroeste 0 -- -- 49
2019-01-24 16:00:00 10.8 22 Noroeste 52 Noroeste 0 -- -- 47
2019-01-24 15:00:00 11.1 18 Noroeste 59 Noroeste 0 -- -- 44
2019-01-24 14:00:00 11.2 31 Noroeste 71 Noroeste 0 -- -- 37
2019-01-24 13:00:00 11.2 21 Noroeste 59 Sudoeste 0 -- -- 41
2019-01-24 12:00:00 10.4 25 Noroeste 58 Noroeste 0 -- -- 42
2019-01-24 11:00:00 9.1 25 Noroeste 56 Noroeste 0 -- -- 47
2019-01-24 10:00:00 7.9 28 Noroeste 61 Noroeste 0 -- -- 56
2019-01-24 09:00:00 7.2 30 Noroeste 62 Noroeste 0 -- -- 60
2019-01-24 08:00:00 6.8 23 Noroeste 49 Oeste 0 -- -- 63
2019-01-24 07:00:00 7.3 14 Noroeste 63 Noroeste 0 -- -- 66
2019-01-24 06:00:00 7.6 18 Noroeste 60 Noroeste 0 -- -- 66
2019-01-24 05:00:00 8 21 Noroeste 58 Noroeste 0 -- -- 65
2019-01-24 04:00:00 8.4 18 Noroeste 52 Noroeste 0 -- -- 64
2019-01-24 03:00:00 8.7 18 Noroeste 55 Noroeste 0 -- -- 64
2019-01-24 02:00:00 8.9 21 Noroeste 53 Noroeste 0 -- -- 64
2019-01-24 01:00:00 9.3 17 Noroeste 54 Noroeste 0 -- -- 64
2019-01-24 00:00:00 9.7 18 Noroeste 53 Oeste 0 -- -- 63